sensor_id;sensor_type;location;lat;lon;timestamp;P1;durP1;ratioP1;P2;durP2;ratioP2
54849;SDS011;47660;51.334;12.396;2023-03-04T00:00:13;4.88;;;3.03;;
54849;SDS011;47660;51.334;12.396;2023-03-04T00:02:39;3.35;;;2.10;;
54849;SDS011;47660;51.334;12.396;2023-03-04T00:05:05;5.55;;;3.25;;
54849;SDS011;47660;51.334;12.396;2023-03-04T00:07:30;4.88;;;3.38;;
54849;SDS011;47660;51.334;12.396;2023-03-04T00:09:56;15.55;;;3.70;;
54849;SDS011;47660;51.334;12.396;2023-03-04T00:12:22;5.35;;;2.92;;
54849;SDS011;47660;51.334;12.396;2023-03-04T00:14:47;6.85;;;3.38;;
54849;SDS011;47660;51.334;12.396;2023-03-04T00:17:12;7.82;;;3.35;;
54849;SDS011;47660;51.334;12.396;2023-03-04T00:19:38;5.47;;;2.00;;
54849;SDS011;47660;51.334;12.396;2023-03-04T00:22:06;4.50;;;2.55;;
54849;SDS011;47660;51.334;12.396;2023-03-04T00:24:32;7.65;;;2.45;;
54849;SDS011;47660;51.334;12.396;2023-03-04T00:26:57;6.28;;;3.30;;
54849;SDS011;47660;51.334;12.396;2023-03-04T00:29:23;7.05;;;1.98;;
54849;SDS011;47660;51.334;12.396;2023-03-04T00:31:49;7.43;;;3.45;;
54849;SDS011;47660;51.334;12.396;2023-03-04T00:34:14;6.20;;;3.50;;
54849;SDS011;47660;51.334;12.396;2023-03-04T00:36:40;4.53;;;3.05;;
54849;SDS011;47660;51.334;12.396;2023-03-04T00:39:10;10.48;;;4.40;;
54849;SDS011;47660;51.334;12.396;2023-03-04T00:41:41;5.68;;;3.83;;
54849;SDS011;47660;51.334;12.396;2023-03-04T00:44:09;5.35;;;3.03;;
54849;SDS011;47660;51.334;12.396;2023-03-04T00:46:37;12.50;;;3.83;;
54849;SDS011;47660;51.334;12.396;2023-03-04T00:49:02;9.65;;;3.38;;
54849;SDS011;47660;51.334;12.396;2023-03-04T00:51:28;8.98;;;4.18;;
54849;SDS011;47660;51.334;12.396;2023-03-04T00:53:56;8.05;;;3.92;;
54849;SDS011;47660;51.334;12.396;2023-03-04T00:56:21;2.92;;;1.98;;
54849;SDS011;47660;51.334;12.396;2023-03-04T00:58:47;9.75;;;4.10;;
54849;SDS011;47660;51.334;12.396;2023-03-04T01:01:15;12.98;;;4.28;;
54849;SDS011;47660;51.334;12.396;2023-03-04T01:03:41;5.93;;;2.75;;
54849;SDS011;47660;51.334;12.396;2023-03-04T01:06:08;4.78;;;3.15;;
54849;SDS011;47660;51.334;12.396;2023-03-04T01:08:37;6.50;;;3.63;;
54849;SDS011;47660;51.334;12.396;2023-03-04T01:11:03;10.43;;;3.92;;
54849;SDS011;47660;51.334;12.396;2023-03-04T01:13:31;2.08;;;1.52;;
54849;SDS011;47660;51.334;12.396;2023-03-04T01:15:57;11.38;;;3.53;;
54849;SDS011;47660;51.334;12.396;2023-03-04T01:18:22;6.18;;;3.00;;
54849;SDS011;47660;51.334;12.396;2023-03-04T01:20:48;5.15;;;2.70;;
54849;SDS011;47660;51.334;12.396;2023-03-04T01:23:14;8.50;;;3.67;;
54849;SDS011;47660;51.334;12.396;2023-03-04T01:25:42;2.38;;;2.17;;
54849;SDS011;47660;51.334;12.396;2023-03-04T01:28:07;6.40;;;3.45;;
54849;SDS011;47660;51.334;12.396;2023-03-04T01:30:35;5.88;;;2.67;;
54849;SDS011;47660;51.334;12.396;2023-03-04T01:33:01;7.65;;;3.63;;
54849;SDS011;47660;51.334;12.396;2023-03-04T01:35:26;6.45;;;2.38;;
54849;SDS011;47660;51.334;12.396;2023-03-04T01:37:51;17.88;;;3.90;;
54849;SDS011;47660;51.334;12.396;2023-03-04T01:40:19;6.43;;;2.80;;
54849;SDS011;47660;51.334;12.396;2023-03-04T01:42:45;3.10;;;2.08;;
54849;SDS011;47660;51.334;12.396;2023-03-04T01:45:14;7.22;;;3.83;;
54849;SDS011;47660;51.334;12.396;2023-03-04T01:47:43;8.57;;;4.13;;
54849;SDS011;47660;51.334;12.396;2023-03-04T01:53:00;5.43;;;3.00;;
54849;SDS011;47660;51.334;12.396;2023-03-04T01:55:26;10.18;;;4.20;;
54849;SDS011;47660;51.334;12.396;2023-03-04T01:57:53;5.38;;;3.03;;
54849;SDS011;47660;51.334;12.396;2023-03-04T02:02:47;4.30;;;1.85;;
54849;SDS011;47660;51.334;12.396;2023-03-04T02:05:16;6.03;;;3.88;;
54849;SDS011;47660;51.334;12.396;2023-03-04T02:07:42;4.75;;;2.83;;
54849;SDS011;47660;51.334;12.396;2023-03-04T02:10:13;4.15;;;2.15;;
54849;SDS011;47660;51.334;12.396;2023-03-04T02:12:39;8.35;;;5.05;;
54849;SDS011;47660;51.334;12.396;2023-03-04T02:15:05;9.80;;;3.58;;
54849;SDS011;47660;51.334;12.396;2023-03-04T02:17:34;5.40;;;3.17;;
54849;SDS011;47660;51.334;12.396;2023-03-04T02:23:10;12.52;;;5.63;;
54849;SDS011;47660;51.334;12.396;2023-03-04T02:25:48;8.00;;;3.70;;
54849;SDS011;47660;51.334;12.396;2023-03-04T02:28:19;3.28;;;2.22;;
54849;SDS011;47660;51.334;12.396;2023-03-04T02:30:48;4.15;;;2.38;;
54849;SDS011;47660;51.334;12.396;2023-03-04T02:33:16;2.17;;;1.95;;
54849;SDS011;47660;51.334;12.396;2023-03-04T02:35:43;4.90;;;3.10;;
54849;SDS011;47660;51.334;12.396;2023-03-04T02:38:09;8.13;;;2.40;;
54849;SDS011;47660;51.334;12.396;2023-03-04T02:40:36;10.32;;;4.72;;
54849;SDS011;47660;51.334;12.396;2023-03-04T02:43:05;4.22;;;2.70;;
54849;SDS011;47660;51.334;12.396;2023-03-04T02:45:44;6.32;;;4.00;;
54849;SDS011;47660;51.334;12.396;2023-03-04T02:48:11;11.05;;;3.10;;
54849;SDS011;47660;51.334;12.396;2023-03-04T02:50:40;4.10;;;1.27;;
54849;SDS011;47660;51.334;12.396;2023-03-04T02:53:08;6.47;;;3.60;;
54849;SDS011;47660;51.334;12.396;2023-03-04T02:55:34;8.30;;;3.10;;
54849;SDS011;47660;51.334;12.396;2023-03-04T02:58:02;7.82;;;3.80;;
54849;SDS011;47660;51.334;12.396;2023-03-04T03:00:31;2.58;;;2.22;;
54849;SDS011;47660;51.334;12.396;2023-03-04T03:02:57;1.75;;;1.55;;
54849;SDS011;47660;51.334;12.396;2023-03-04T03:05:23;5.53;;;2.55;;
54849;SDS011;47660;51.334;12.396;2023-03-04T03:07:53;9.63;;;4.68;;
54849;SDS011;47660;51.334;12.396;2023-03-04T03:10:19;9.15;;;3.20;;
54849;SDS011;47660;51.334;12.396;2023-03-04T03:12:44;7.97;;;4.20;;
54849;SDS011;47660;51.334;12.396;2023-03-04T03:15:15;10.50;;;4.32;;
54849;SDS011;47660;51.334;12.396;2023-03-04T03:17:43;9.18;;;3.92;;
54849;SDS011;47660;51.334;12.396;2023-03-04T03:20:09;12.45;;;4.88;;
54849;SDS011;47660;51.334;12.396;2023-03-04T03:22:36;10.82;;;4.68;;
54849;SDS011;47660;51.334;12.396;2023-03-04T03:25:02;7.25;;;2.92;;
54849;SDS011;47660;51.334;12.396;2023-03-04T03:27:33;7.45;;;4.28;;
54849;SDS011;47660;51.334;12.396;2023-03-04T03:29:59;11.93;;;4.82;;
54849;SDS011;47660;51.334;12.396;2023-03-04T03:32:24;8.75;;;4.28;;
54849;SDS011;47660;51.334;12.396;2023-03-04T03:34:50;10.38;;;5.10;;
54849;SDS011;47660;51.334;12.396;2023-03-04T03:37:15;5.40;;;2.15;;
54849;SDS011;47660;51.334;12.396;2023-03-04T03:39:41;4.05;;;2.03;;
54849;SDS011;47660;51.334;12.396;2023-03-04T03:42:07;6.65;;;3.15;;
54849;SDS011;47660;51.334;12.396;2023-03-04T03:44:32;8.13;;;4.18;;
54849;SDS011;47660;51.334;12.396;2023-03-04T03:47:00;3.92;;;2.30;;
54849;SDS011;47660;51.334;12.396;2023-03-04T03:49:26;4.13;;;2.53;;
54849;SDS011;47660;51.334;12.396;2023-03-04T03:51:52;3.80;;;2.58;;
54849;SDS011;47660;51.334;12.396;2023-03-04T03:54:17;5.88;;;3.53;;
54849;SDS011;47660;51.334;12.396;2023-03-04T03:56:43;18.55;;;3.60;;
54849;SDS011;47660;51.334;12.396;2023-03-04T03:59:13;7.00;;;2.58;;
54849;SDS011;47660;51.334;12.396;2023-03-04T04:01:41;5.43;;;2.30;;
54849;SDS011;47660;51.334;12.396;2023-03-04T04:04:06;14.70;;;4.45;;
54849;SDS011;47660;51.334;12.396;2023-03-04T04:06:32;9.52;;;4.35;;
54849;SDS011;47660;51.334;12.396;2023-03-04T04:08:57;7.00;;;4.10;;
54849;SDS011;47660;51.334;12.396;2023-03-04T04:11:23;5.85;;;2.85;;
54849;SDS011;47660;51.334;12.396;2023-03-04T04:13:48;14.68;;;3.40;;
54849;SDS011;47660;51.334;12.396;2023-03-04T04:16:16;10.02;;;3.33;;
54849;SDS011;47660;51.334;12.396;2023-03-04T04:18:41;9.93;;;4.18;;
54849;SDS011;47660;51.334;12.396;2023-03-04T04:21:07;6.78;;;2.90;;
54849;SDS011;47660;51.334;12.396;2023-03-04T04:23:33;3.45;;;2.22;;
54849;SDS011;47660;51.334;12.396;2023-03-04T04:26:01;7.47;;;3.10;;
54849;SDS011;47660;51.334;12.396;2023-03-04T04:28:27;12.77;;;4.30;;
54849;SDS011;47660;51.334;12.396;2023-03-04T04:30:52;4.97;;;2.83;;
54849;SDS011;47660;51.334;12.396;2023-03-04T04:33:17;4.90;;;1.85;;
54849;SDS011;47660;51.334;12.396;2023-03-04T04:35:43;3.38;;;1.77;;
54849;SDS011;47660;51.334;12.396;2023-03-04T04:38:08;7.90;;;2.75;;
54849;SDS011;47660;51.334;12.396;2023-03-04T04:40:34;5.03;;;2.53;;
54849;SDS011;47660;51.334;12.396;2023-03-04T04:43:00;2.97;;;2.17;;
54849;SDS011;47660;51.334;12.396;2023-03-04T04:45:27;3.45;;;2.40;;
54849;SDS011;47660;51.334;12.396;2023-03-04T04:47:53;4.35;;;2.35;;
54849;SDS011;47660;51.334;12.396;2023-03-04T04:50:21;4.72;;;3.15;;
54849;SDS011;47660;51.334;12.396;2023-03-04T04:52:49;11.45;;;4.65;;
54849;SDS011;47660;51.334;12.396;2023-03-04T04:55:15;13.90;;;4.07;;
54849;SDS011;47660;51.334;12.396;2023-03-04T04:57:40;5.13;;;2.83;;
54849;SDS011;47660;51.334;12.396;2023-03-04T05:00:09;10.65;;;3.95;;
54849;SDS011;47660;51.334;12.396;2023-03-04T05:02:35;6.88;;;3.28;;
54849;SDS011;47660;51.334;12.396;2023-03-04T05:05:04;7.53;;;2.33;;
54849;SDS011;47660;51.334;12.396;2023-03-04T05:07:33;15.20;;;4.72;;
54849;SDS011;47660;51.334;12.396;2023-03-04T05:09:58;6.45;;;2.92;;
54849;SDS011;47660;51.334;12.396;2023-03-04T05:12:24;7.30;;;3.70;;
54849;SDS011;47660;51.334;12.396;2023-03-04T05:14:50;4.70;;;2.15;;
54849;SDS011;47660;51.334;12.396;2023-03-04T05:17:15;6.35;;;2.75;;
54849;SDS011;47660;51.334;12.396;2023-03-04T05:19:45;12.77;;;4.43;;
54849;SDS011;47660;51.334;12.396;2023-03-04T05:22:13;13.63;;;3.75;;
54849;SDS011;47660;51.334;12.396;2023-03-04T05:24:38;6.25;;;3.90;;
54849;SDS011;47660;51.334;12.396;2023-03-04T05:27:04;8.18;;;3.05;;
54849;SDS011;47660;51.334;12.396;2023-03-04T05:29:32;11.88;;;4.60;;
54849;SDS011;47660;51.334;12.396;2023-03-04T05:32:01;11.40;;;4.00;;
54849;SDS011;47660;51.334;12.396;2023-03-04T05:34:32;9.88;;;4.18;;
54849;SDS011;47660;51.334;12.396;2023-03-04T05:36:57;5.53;;;3.53;;
54849;SDS011;47660;51.334;12.396;2023-03-04T05:39:25;9.90;;;3.40;;
54849;SDS011;47660;51.334;12.396;2023-03-04T05:41:52;3.85;;;2.80;;
54849;SDS011;47660;51.334;12.396;2023-03-04T05:44:18;6.50;;;4.20;;
54849;SDS011;47660;51.334;12.396;2023-03-04T05:46:45;4.68;;;1.92;;
54849;SDS011;47660;51.334;12.396;2023-03-04T05:49:11;6.45;;;3.60;;
54849;SDS011;47660;51.334;12.396;2023-03-04T05:51:36;5.75;;;2.80;;
54849;SDS011;47660;51.334;12.396;2023-03-04T05:54:01;4.50;;;2.15;;
54849;SDS011;47660;51.334;12.396;2023-03-04T05:56:27;6.22;;;2.65;;
54849;SDS011;47660;51.334;12.396;2023-03-04T05:58:56;5.70;;;3.67;;
54849;SDS011;47660;51.334;12.396;2023-03-04T06:01:23;3.58;;;2.25;;
54849;SDS011;47660;51.334;12.396;2023-03-04T06:03:51;3.60;;;3.20;;
54849;SDS011;47660;51.334;12.396;2023-03-04T06:06:19;2.55;;;2.22;;
54849;SDS011;47660;51.334;12.396;2023-03-04T06:08:45;8.05;;;3.92;;
54849;SDS011;47660;51.334;12.396;2023-03-04T06:16:04;3.80;;;2.20;;
54849;SDS011;47660;51.334;12.396;2023-03-04T06:18:29;14.20;;;3.70;;
54849;SDS011;47660;51.334;12.396;2023-03-04T06:20:58;5.03;;;2.97;;
54849;SDS011;47660;51.334;12.396;2023-03-04T06:23:28;13.95;;;2.85;;
54849;SDS011;47660;51.334;12.396;2023-03-04T06:25:55;4.00;;;2.83;;
54849;SDS011;47660;51.334;12.396;2023-03-04T06:28:22;8.73;;;2.70;;
54849;SDS011;47660;51.334;12.396;2023-03-04T06:30:47;6.05;;;3.25;;
54849;SDS011;47660;51.334;12.396;2023-03-04T06:33:16;5.60;;;2.78;;
54849;SDS011;47660;51.334;12.396;2023-03-04T06:35:41;5.25;;;3.10;;
54849;SDS011;47660;51.334;12.396;2023-03-04T06:38:07;4.32;;;2.67;;
54849;SDS011;47660;51.334;12.396;2023-03-04T06:40:32;7.10;;;3.42;;
54849;SDS011;47660;51.334;12.396;2023-03-04T06:43:01;4.97;;;2.72;;
54849;SDS011;47660;51.334;12.396;2023-03-04T06:45:26;1.88;;;1.48;;
54849;SDS011;47660;51.334;12.396;2023-03-04T06:47:54;5.68;;;3.00;;
54849;SDS011;47660;51.334;12.396;2023-03-04T06:50:19;6.68;;;3.10;;
54849;SDS011;47660;51.334;12.396;2023-03-04T06:52:45;9.63;;;2.63;;
54849;SDS011;47660;51.334;12.396;2023-03-04T06:55:13;8.25;;;3.45;;
54849;SDS011;47660;51.334;12.396;2023-03-04T06:57:38;4.90;;;2.45;;
54849;SDS011;47660;51.334;12.396;2023-03-04T07:00:04;3.42;;;2.10;;
54849;SDS011;47660;51.334;12.396;2023-03-04T07:02:30;5.65;;;3.00;;
54849;SDS011;47660;51.334;12.396;2023-03-04T07:04:56;13.68;;;4.28;;
54849;SDS011;47660;51.334;12.396;2023-03-04T07:07:21;15.70;;;3.08;;
54849;SDS011;47660;51.334;12.396;2023-03-04T07:09:47;8.18;;;3.05;;
54849;SDS011;47660;51.334;12.396;2023-03-04T07:12:13;4.13;;;2.50;;
54849;SDS011;47660;51.334;12.396;2023-03-04T07:14:38;5.55;;;2.65;;
54849;SDS011;47660;51.334;12.396;2023-03-04T07:17:04;3.78;;;3.08;;
54849;SDS011;47660;51.334;12.396;2023-03-04T07:19:29;13.32;;;3.83;;
54849;SDS011;47660;51.334;12.396;2023-03-04T07:21:55;9.43;;;2.92;;
54849;SDS011;47660;51.334;12.396;2023-03-04T07:24:23;4.78;;;2.50;;
54849;SDS011;47660;51.334;12.396;2023-03-04T07:26:48;5.97;;;1.65;;
54849;SDS011;47660;51.334;12.396;2023-03-04T07:29:13;2.67;;;1.88;;
54849;SDS011;47660;51.334;12.396;2023-03-04T07:31:39;9.40;;;2.75;;
54849;SDS011;47660;51.334;12.396;2023-03-04T07:34:05;11.35;;;2.97;;
54849;SDS011;47660;51.334;12.396;2023-03-04T07:36:32;17.13;;;4.60;;
54849;SDS011;47660;51.334;12.396;2023-03-04T07:39:03;5.70;;;2.20;;
54849;SDS011;47660;51.334;12.396;2023-03-04T07:41:30;4.80;;;2.33;;
54849;SDS011;47660;51.334;12.396;2023-03-04T07:44:00;5.25;;;2.35;;
54849;SDS011;47660;51.334;12.396;2023-03-04T07:46:28;7.53;;;3.05;;
54849;SDS011;47660;51.334;12.396;2023-03-04T07:48:54;5.65;;;2.53;;
54849;SDS011;47660;51.334;12.396;2023-03-04T07:51:23;12.65;;;3.20;;
54849;SDS011;47660;51.334;12.396;2023-03-04T07:53:51;6.43;;;2.97;;
54849;SDS011;47660;51.334;12.396;2023-03-04T07:56:23;12.75;;;3.72;;
54849;SDS011;47660;51.334;12.396;2023-03-04T07:58:50;3.88;;;2.60;;
54849;SDS011;47660;51.334;12.396;2023-03-04T08:01:20;2.37;;;1.53;;
54849;SDS011;47660;51.334;12.396;2023-03-04T08:03:53;5.32;;;2.63;;
54849;SDS011;47660;51.334;12.396;2023-03-04T08:06:19;11.32;;;2.97;;
54849;SDS011;47660;51.334;12.396;2023-03-04T08:08:46;5.28;;;2.42;;
54849;SDS011;47660;51.334;12.396;2023-03-04T08:11:16;9.98;;;2.42;;
54849;SDS011;47660;51.334;12.396;2023-03-04T08:13:43;6.95;;;2.50;;
54849;SDS011;47660;51.334;12.396;2023-03-04T08:16:13;7.65;;;2.45;;
54849;SDS011;47660;51.334;12.396;2023-03-04T08:18:41;2.22;;;1.25;;
54849;SDS011;47660;51.334;12.396;2023-03-04T08:21:08;6.88;;;2.45;;
54849;SDS011;47660;51.334;12.396;2023-03-04T08:23:39;2.92;;;1.63;;
54849;SDS011;47660;51.334;12.396;2023-03-04T08:26:11;3.30;;;1.90;;
54849;SDS011;47660;51.334;12.396;2023-03-04T08:28:42;2.72;;;1.30;;
54849;SDS011;47660;51.334;12.396;2023-03-04T08:31:07;6.70;;;1.65;;
54849;SDS011;47660;51.334;12.396;2023-03-04T08:33:33;1.40;;;1.10;;
54849;SDS011;47660;51.334;12.396;2023-03-04T08:36:01;3.53;;;1.88;;
54849;SDS011;47660;51.334;12.396;2023-03-04T08:38:26;2.97;;;2.00;;
54849;SDS011;47660;51.334;12.396;2023-03-04T08:40:52;7.20;;;2.80;;
54849;SDS011;47660;51.334;12.396;2023-03-04T08:43:19;7.13;;;1.80;;
54849;SDS011;47660;51.334;12.396;2023-03-04T08:45:45;4.90;;;2.30;;
54849;SDS011;47660;51.334;12.396;2023-03-04T08:48:11;10.02;;;2.17;;
54849;SDS011;47660;51.334;12.396;2023-03-04T08:50:36;2.20;;;1.70;;
54849;SDS011;47660;51.334;12.396;2023-03-04T08:53:02;4.22;;;2.03;;
54849;SDS011;47660;51.334;12.396;2023-03-04T08:55:27;5.13;;;1.58;;
54849;SDS011;47660;51.334;12.396;2023-03-04T08:57:55;6.03;;;2.00;;
54849;SDS011;47660;51.334;12.396;2023-03-04T09:00:23;2.97;;;1.95;;
54849;SDS011;47660;51.334;12.396;2023-03-04T09:02:51;2.58;;;0.80;;
54849;SDS011;47660;51.334;12.396;2023-03-04T09:05:16;1.42;;;1.00;;
54849;SDS011;47660;51.334;12.396;2023-03-04T09:07:44;4.22;;;1.00;;
54849;SDS011;47660;51.334;12.396;2023-03-04T09:10:10;5.53;;;2.13;;
54849;SDS011;47660;51.334;12.396;2023-03-04T09:12:38;1.05;;;0.95;;
54849;SDS011;47660;51.334;12.396;2023-03-04T09:15:04;2.58;;;1.55;;
54849;SDS011;47660;51.334;12.396;2023-03-04T09:17:33;4.55;;;2.10;;
54849;SDS011;47660;51.334;12.396;2023-03-04T09:20:01;2.05;;;1.85;;
54849;SDS011;47660;51.334;12.396;2023-03-04T09:22:26;2.25;;;1.67;;
54849;SDS011;47660;51.334;12.396;2023-03-04T09:24:52;1.75;;;1.30;;
54849;SDS011;47660;51.334;12.396;2023-03-04T09:27:17;10.40;;;1.50;;
54849;SDS011;47660;51.334;12.396;2023-03-04T09:29:43;0.70;;;0.55;;
54849;SDS011;47660;51.334;12.396;2023-03-04T09:32:09;2.42;;;1.10;;
54849;SDS011;47660;51.334;12.396;2023-03-04T09:34:35;1.25;;;0.55;;
54849;SDS011;47660;51.334;12.396;2023-03-04T09:37:00;1.85;;;1.20;;
54849;SDS011;47660;51.334;12.396;2023-03-04T09:39:28;3.45;;;0.90;;
54849;SDS011;47660;51.334;12.396;2023-03-04T09:41:55;1.52;;;0.75;;
54849;SDS011;47660;51.334;12.396;2023-03-04T09:44:23;2.35;;;1.17;;
54849;SDS011;47660;51.334;12.396;2023-03-04T09:46:56;1.40;;;1.13;;
54849;SDS011;47660;51.334;12.396;2023-03-04T09:49:24;1.30;;;0.85;;
54849;SDS011;47660;51.334;12.396;2023-03-04T09:51:58;0.98;;;0.82;;
54849;SDS011;47660;51.334;12.396;2023-03-04T09:57:23;1.85;;;1.02;;
54849;SDS011;47660;51.334;12.396;2023-03-04T10:02:45;4.68;;;1.20;;
54849;SDS011;47660;51.334;12.396;2023-03-04T10:05:30;1.85;;;0.65;;
54849;SDS011;47660;51.334;12.396;2023-03-04T10:07:59;1.55;;;0.75;;
54849;SDS011;47660;51.334;12.396;2023-03-04T10:10:40;1.65;;;0.75;;
54849;SDS011;47660;51.334;12.396;2023-03-04T10:13:13;0.95;;;0.60;;
54849;SDS011;47660;51.334;12.396;2023-03-04T10:15:45;0.88;;;0.70;;
54849;SDS011;47660;51.334;12.396;2023-03-04T10:21:03;2.67;;;0.38;;
54849;SDS011;47660;51.334;12.396;2023-03-04T10:23:39;1.35;;;1.08;;
54849;SDS011;47660;51.334;12.396;2023-03-04T10:26:14;0.50;;;0.50;;
54849;SDS011;47660;51.334;12.396;2023-03-04T10:28:45;1.38;;;1.10;;
54849;SDS011;47660;51.334;12.396;2023-03-04T10:31:33;8.45;;;1.13;;
54849;SDS011;47660;51.334;12.396;2023-03-04T10:34:04;3.00;;;0.88;;
54849;SDS011;47660;51.334;12.396;2023-03-04T10:36:37;0.50;;;0.50;;
54849;SDS011;47660;51.334;12.396;2023-03-04T10:39:10;1.38;;;0.75;;
54849;SDS011;47660;51.334;12.396;2023-03-04T10:41:41;1.92;;;0.85;;
54849;SDS011;47660;51.334;12.396;2023-03-04T10:46:36;2.92;;;1.10;;
54849;SDS011;47660;51.334;12.396;2023-03-04T10:49:06;0.70;;;0.63;;
54849;SDS011;47660;51.334;12.396;2023-03-04T10:51:38;1.88;;;0.43;;
54849;SDS011;47660;51.334;12.396;2023-03-04T10:57:00;1.08;;;0.90;;
54849;SDS011;47660;51.334;12.396;2023-03-04T10:59:34;0.90;;;0.57;;
54849;SDS011;47660;51.334;12.396;2023-03-04T11:02:50;1.27;;;0.88;;
54849;SDS011;47660;51.334;12.396;2023-03-04T11:04:56;1.17;;;0.50;;
54849;SDS011;47660;51.334;12.396;2023-03-04T11:07:27;1.05;;;0.88;;
54849;SDS011;47660;51.334;12.396;2023-03-04T11:09:52;1.48;;;0.65;;
54849;SDS011;47660;51.334;12.396;2023-03-04T11:12:19;1.02;;;0.45;;
54849;SDS011;47660;51.334;12.396;2023-03-04T11:14:55;2.00;;;0.75;;
54849;SDS011;47660;51.334;12.396;2023-03-04T11:17:22;1.33;;;1.00;;
54849;SDS011;47660;51.334;12.396;2023-03-04T11:19:51;0.95;;;0.65;;
54849;SDS011;47660;51.334;12.396;2023-03-04T11:22:28;2.70;;;0.55;;
54849;SDS011;47660;51.334;12.396;2023-03-04T11:25:00;2.67;;;1.15;;
54849;SDS011;47660;51.334;12.396;2023-03-04T11:27:51;0.82;;;0.45;;
54849;SDS011;47660;51.334;12.396;2023-03-04T11:30:28;2.78;;;1.17;;
54849;SDS011;47660;51.334;12.396;2023-03-04T11:33:08;2.85;;;0.93;;
54849;SDS011;47660;51.334;12.396;2023-03-04T11:38:38;1.05;;;0.60;;
54849;SDS011;47660;51.334;12.396;2023-03-04T11:44:04;3.63;;;1.05;;
54849;SDS011;47660;51.334;12.396;2023-03-04T12:00:24;2.28;;;1.13;;
54849;SDS011;47660;51.334;12.396;2023-03-04T12:37:00;1.55;;;0.93;;
54849;SDS011;47660;51.334;12.396;2023-03-04T12:45:13;1.25;;;1.08;;
54849;SDS011;47660;51.334;12.396;2023-03-04T12:55:57;1.90;;;0.63;;
54849;SDS011;47660;51.334;12.396;2023-03-04T12:58:25;2.78;;;1.10;;
54849;SDS011;47660;51.334;12.396;2023-03-04T13:03:34;3.03;;;1.30;;
54849;SDS011;47660;51.334;12.396;2023-03-04T13:06:24;2.13;;;1.13;;
54849;SDS011;47660;51.334;12.396;2023-03-04T13:09:21;2.65;;;1.20;;
54849;SDS011;47660;51.334;12.396;2023-03-04T13:30:38;1.92;;;0.88;;
54849;SDS011;47660;51.334;12.396;2023-03-04T13:35:48;1.63;;;0.63;;
54849;SDS011;47660;51.334;12.396;2023-03-04T13:48:58;1.88;;;0.95;;
54849;SDS011;47660;51.334;12.396;2023-03-04T14:04:26;3.10;;;0.95;;
54849;SDS011;47660;51.334;12.396;2023-03-04T14:06:53;3.80;;;1.15;;
54849;SDS011;47660;51.334;12.396;2023-03-04T14:09:24;5.38;;;1.55;;
54849;SDS011;47660;51.334;12.396;2023-03-04T14:11:52;5.65;;;1.65;;
54849;SDS011;47660;51.334;12.396;2023-03-04T14:14:25;3.10;;;1.38;;
54849;SDS011;47660;51.334;12.396;2023-03-04T14:17:02;3.70;;;1.33;;
54849;SDS011;47660;51.334;12.396;2023-03-04T14:20:03;3.90;;;0.98;;
54849;SDS011;47660;51.334;12.396;2023-03-04T14:22:24;5.15;;;1.42;;
54849;SDS011;47660;51.334;12.396;2023-03-04T14:27:32;1.63;;;1.00;;
54849;SDS011;47660;51.334;12.396;2023-03-04T14:30:02;7.30;;;1.40;;
54849;SDS011;47660;51.334;12.396;2023-03-04T14:32:30;2.15;;;1.02;;
54849;SDS011;47660;51.334;12.396;2023-03-04T14:34:57;2.88;;;1.25;;
54849;SDS011;47660;51.334;12.396;2023-03-04T14:37:32;1.48;;;1.00;;
54849;SDS011;47660;51.334;12.396;2023-03-04T14:40:28;1.90;;;1.17;;
54849;SDS011;47660;51.334;12.396;2023-03-04T14:45:51;3.20;;;0.88;;
54849;SDS011;47660;51.334;12.396;2023-03-04T14:48:23;1.33;;;0.80;;
54849;SDS011;47660;51.334;12.396;2023-03-04T14:50:52;1.38;;;0.90;;
54849;SDS011;47660;51.334;12.396;2023-03-04T14:53:20;3.53;;;0.75;;
54849;SDS011;47660;51.334;12.396;2023-03-04T14:55:57;2.72;;;1.25;;
54849;SDS011;47660;51.334;12.396;2023-03-04T14:58:25;4.22;;;1.40;;
54849;SDS011;47660;51.334;12.396;2023-03-04T15:03:39;4.78;;;1.30;;
54849;SDS011;47660;51.334;12.396;2023-03-04T15:06:18;2.95;;;1.45;;
54849;SDS011;47660;51.334;12.396;2023-03-04T15:08:53;1.60;;;1.02;;
54849;SDS011;47660;51.334;12.396;2023-03-04T15:11:22;2.90;;;1.00;;
54849;SDS011;47660;51.334;12.396;2023-03-04T15:13:54;4.75;;;1.50;;
54849;SDS011;47660;51.334;12.396;2023-03-04T15:16:24;3.92;;;1.13;;
54849;SDS011;47660;51.334;12.396;2023-03-04T15:18:54;6.13;;;1.40;;
54849;SDS011;47660;51.334;12.396;2023-03-04T15:24:02;3.92;;;1.13;;
54849;SDS011;47660;51.334;12.396;2023-03-04T15:26:29;1.20;;;0.98;;
54849;SDS011;47660;51.334;12.396;2023-03-04T15:28:57;3.10;;;1.00;;
54849;SDS011;47660;51.334;12.396;2023-03-04T15:31:22;3.75;;;1.67;;
54849;SDS011;47660;51.334;12.396;2023-03-04T15:33:53;2.45;;;1.13;;
54849;SDS011;47660;51.334;12.396;2023-03-04T15:36:20;4.68;;;1.10;;
54849;SDS011;47660;51.334;12.396;2023-03-04T15:38:50;3.40;;;1.13;;
54849;SDS011;47660;51.334;12.396;2023-03-04T15:41:20;2.50;;;0.93;;
54849;SDS011;47660;51.334;12.396;2023-03-04T15:43:48;0.68;;;0.63;;
54849;SDS011;47660;51.334;12.396;2023-03-04T15:46:15;4.70;;;1.55;;
54849;SDS011;47660;51.334;12.396;2023-03-04T15:48:40;1.65;;;0.77;;
54849;SDS011;47660;51.334;12.396;2023-03-04T15:51:13;3.08;;;0.73;;
54849;SDS011;47660;51.334;12.396;2023-03-04T15:53:47;0.88;;;0.68;;
54849;SDS011;47660;51.334;12.396;2023-03-04T15:58:54;1.27;;;0.60;;
54849;SDS011;47660;51.334;12.396;2023-03-04T16:01:25;8.85;;;1.08;;
54849;SDS011;47660;51.334;12.396;2023-03-04T16:03:51;1.27;;;0.93;;
54849;SDS011;47660;51.334;12.396;2023-03-04T16:06:17;3.20;;;0.80;;
54849;SDS011;47660;51.334;12.396;2023-03-04T16:08:48;1.85;;;0.90;;
54849;SDS011;47660;51.334;12.396;2023-03-04T16:11:20;3.45;;;0.77;;
54849;SDS011;47660;51.334;12.396;2023-03-04T16:13:57;1.00;;;0.70;;
54849;SDS011;47660;51.334;12.396;2023-03-04T16:16:23;3.33;;;0.30;;
54849;SDS011;47660;51.334;12.396;2023-03-04T16:18:48;1.55;;;0.60;;
54849;SDS011;47660;51.334;12.396;2023-03-04T16:21:15;1.73;;;0.68;;
54849;SDS011;47660;51.334;12.396;2023-03-04T16:23:43;5.43;;;0.80;;
54849;SDS011;47660;51.334;12.396;2023-03-04T16:26:15;3.10;;;0.80;;
54849;SDS011;47660;51.334;12.396;2023-03-04T16:28:43;1.48;;;0.60;;
54849;SDS011;47660;51.334;12.396;2023-03-04T16:31:10;1.23;;;0.60;;
54849;SDS011;47660;51.334;12.396;2023-03-04T16:33:36;0.93;;;0.38;;
54849;SDS011;47660;51.334;12.396;2023-03-04T16:36:02;1.90;;;0.77;;
54849;SDS011;47660;51.334;12.396;2023-03-04T16:38:30;0.63;;;0.55;;
54849;SDS011;47660;51.334;12.396;2023-03-04T16:40:57;3.08;;;0.70;;
54849;SDS011;47660;51.334;12.396;2023-03-04T16:43:26;1.20;;;0.57;;
54849;SDS011;47660;51.334;12.396;2023-03-04T16:45:54;3.38;;;0.60;;
54849;SDS011;47660;51.334;12.396;2023-03-04T16:48:25;0.80;;;0.80;;
54849;SDS011;47660;51.334;12.396;2023-03-04T16:50:53;2.45;;;0.60;;
54849;SDS011;47660;51.334;12.396;2023-03-04T16:53:31;1.65;;;0.60;;
54849;SDS011;47660;51.334;12.396;2023-03-04T16:56:01;0.77;;;0.63;;
54849;SDS011;47660;51.334;12.396;2023-03-04T16:58:32;1.17;;;0.50;;
54849;SDS011;47660;51.334;12.396;2023-03-04T17:00:57;3.33;;;0.43;;
54849;SDS011;47660;51.334;12.396;2023-03-04T17:03:28;0.63;;;0.35;;
54849;SDS011;47660;51.334;12.396;2023-03-04T17:05:53;6.82;;;0.65;;
54849;SDS011;47660;51.334;12.396;2023-03-04T17:08:19;1.70;;;0.65;;
54849;SDS011;47660;51.334;12.396;2023-03-04T17:10:44;0.77;;;0.38;;
54849;SDS011;47660;51.334;12.396;2023-03-04T17:13:10;1.42;;;0.40;;
54849;SDS011;47660;51.334;12.396;2023-03-04T17:15:38;1.95;;;1.02;;